sensor_id;sensor_type;location;lat;lon;timestamp;P1;durP1;ratioP1;P2;durP2;ratioP2
29370;SDS011;16357;52.188;7.838;2024-01-15T00:01:10;12.27;;;7.22;;
29370;SDS011;16357;52.188;7.838;2024-01-15T00:03:37;14.73;;;7.07;;
29370;SDS011;16357;52.188;7.838;2024-01-15T00:06:03;11.52;;;6.03;;
29370;SDS011;16357;52.188;7.838;2024-01-15T00:08:30;12.48;;;6.13;;
29370;SDS011;16357;52.188;7.838;2024-01-15T00:10:57;13.05;;;6.18;;
29370;SDS011;16357;52.188;7.838;2024-01-15T00:13:23;12.00;;;5.65;;
29370;SDS011;16357;52.188;7.838;2024-01-15T00:15:49;14.40;;;5.35;;
29370;SDS011;16357;52.188;7.838;2024-01-15T00:18:16;12.60;;;5.45;;
29370;SDS011;16357;52.188;7.838;2024-01-15T00:20:43;12.43;;;4.50;;
29370;SDS011;16357;52.188;7.838;2024-01-15T00:23:09;9.38;;;3.97;;
29370;SDS011;16357;52.188;7.838;2024-01-15T00:25:36;7.85;;;4.05;;
29370;SDS011;16357;52.188;7.838;2024-01-15T00:28:03;8.52;;;3.95;;
29370;SDS011;16357;52.188;7.838;2024-01-15T00:30:30;11.07;;;4.07;;
29370;SDS011;16357;52.188;7.838;2024-01-15T00:32:56;12.18;;;4.00;;
29370;SDS011;16357;52.188;7.838;2024-01-15T00:35:23;7.47;;;3.13;;
29370;SDS011;16357;52.188;7.838;2024-01-15T00:37:49;12.95;;;3.88;;
29370;SDS011;16357;52.188;7.838;2024-01-15T00:40:16;7.93;;;3.63;;
29370;SDS011;16357;52.188;7.838;2024-01-15T00:42:42;9.02;;;3.92;;
29370;SDS011;16357;52.188;7.838;2024-01-15T00:45:09;8.40;;;3.42;;
29370;SDS011;16357;52.188;7.838;2024-01-15T00:47:36;11.80;;;4.07;;
29370;SDS011;16357;52.188;7.838;2024-01-15T00:50:02;9.32;;;4.32;;
29370;SDS011;16357;52.188;7.838;2024-01-15T00:52:29;11.65;;;4.43;;
29370;SDS011;16357;52.188;7.838;2024-01-15T00:54:56;9.50;;;4.40;;
29370;SDS011;16357;52.188;7.838;2024-01-15T00:57:22;9.23;;;3.85;;
29370;SDS011;16357;52.188;7.838;2024-01-15T00:59:49;10.05;;;4.13;;
29370;SDS011;16357;52.188;7.838;2024-01-15T01:02:15;7.88;;;4.20;;
29370;SDS011;16357;52.188;7.838;2024-01-15T01:04:42;10.77;;;3.97;;
29370;SDS011;16357;52.188;7.838;2024-01-15T01:07:08;9.30;;;4.05;;
29370;SDS011;16357;52.188;7.838;2024-01-15T01:09:35;9.07;;;3.55;;
29370;SDS011;16357;52.188;7.838;2024-01-15T01:12:01;8.45;;;3.10;;
29370;SDS011;16357;52.188;7.838;2024-01-15T01:14:28;7.18;;;3.28;;
29370;SDS011;16357;52.188;7.838;2024-01-15T01:16:54;8.32;;;3.30;;
29370;SDS011;16357;52.188;7.838;2024-01-15T01:19:21;8.75;;;3.20;;
29370;SDS011;16357;52.188;7.838;2024-01-15T01:21:48;10.88;;;3.17;;
29370;SDS011;16357;52.188;7.838;2024-01-15T01:24:14;10.60;;;3.00;;
29370;SDS011;16357;52.188;7.838;2024-01-15T01:26:41;10.25;;;2.88;;
29370;SDS011;16357;52.188;7.838;2024-01-15T01:29:07;6.93;;;2.80;;
29370;SDS011;16357;52.188;7.838;2024-01-15T01:31:34;7.65;;;2.35;;
29370;SDS011;16357;52.188;7.838;2024-01-15T01:34:00;8.30;;;2.72;;
29370;SDS011;16357;52.188;7.838;2024-01-15T01:36:27;9.77;;;2.40;;
29370;SDS011;16357;52.188;7.838;2024-01-15T01:38:53;4.95;;;2.60;;
29370;SDS011;16357;52.188;7.838;2024-01-15T01:41:20;7.25;;;2.30;;
29370;SDS011;16357;52.188;7.838;2024-01-15T01:43:46;7.35;;;2.33;;
29370;SDS011;16357;52.188;7.838;2024-01-15T01:46:13;7.38;;;2.40;;
29370;SDS011;16357;52.188;7.838;2024-01-15T01:48:39;6.82;;;1.83;;
29370;SDS011;16357;52.188;7.838;2024-01-15T01:51:06;5.40;;;2.10;;
29370;SDS011;16357;52.188;7.838;2024-01-15T01:53:34;8.32;;;2.72;;
29370;SDS011;16357;52.188;7.838;2024-01-15T01:56:02;7.82;;;2.28;;
29370;SDS011;16357;52.188;7.838;2024-01-15T01:58:30;5.35;;;2.00;;
29370;SDS011;16357;52.188;7.838;2024-01-15T02:00:58;7.93;;;2.00;;
29370;SDS011;16357;52.188;7.838;2024-01-15T02:03:26;9.48;;;2.40;;
29370;SDS011;16357;52.188;7.838;2024-01-15T02:05:54;9.15;;;2.13;;
29370;SDS011;16357;52.188;7.838;2024-01-15T02:08:21;8.70;;;2.20;;
29370;SDS011;16357;52.188;7.838;2024-01-15T02:10:48;8.43;;;1.95;;
29370;SDS011;16357;52.188;7.838;2024-01-15T02:13:14;7.10;;;2.08;;
29370;SDS011;16357;52.188;7.838;2024-01-15T02:15:41;9.13;;;1.73;;
29370;SDS011;16357;52.188;7.838;2024-01-15T02:18:08;8.15;;;2.03;;
29370;SDS011;16357;52.188;7.838;2024-01-15T02:20:35;6.53;;;1.52;;
29370;SDS011;16357;52.188;7.838;2024-01-15T02:25:42;6.63;;;2.35;;
29370;SDS011;16357;52.188;7.838;2024-01-15T02:28:12;10.63;;;2.75;;
29370;SDS011;16357;52.188;7.838;2024-01-15T02:30:40;11.98;;;2.50;;
29370;SDS011;16357;52.188;7.838;2024-01-15T02:33:08;10.93;;;2.30;;
29370;SDS011;16357;52.188;7.838;2024-01-15T02:35:35;8.55;;;2.50;;
29370;SDS011;16357;52.188;7.838;2024-01-15T02:38:05;9.90;;;2.08;;
29370;SDS011;16357;52.188;7.838;2024-01-15T02:40:32;10.55;;;2.40;;
29370;SDS011;16357;52.188;7.838;2024-01-15T02:42:59;8.38;;;2.15;;
29370;SDS011;16357;52.188;7.838;2024-01-15T02:45:25;10.75;;;2.55;;
29370;SDS011;16357;52.188;7.838;2024-01-15T02:47:53;11.55;;;2.13;;
29370;SDS011;16357;52.188;7.838;2024-01-15T02:50:20;6.50;;;2.17;;
29370;SDS011;16357;52.188;7.838;2024-01-15T02:52:46;8.48;;;2.35;;
29370;SDS011;16357;52.188;7.838;2024-01-15T02:55:13;11.07;;;2.70;;
29370;SDS011;16357;52.188;7.838;2024-01-15T02:57:39;8.80;;;2.70;;
29370;SDS011;16357;52.188;7.838;2024-01-15T03:00:06;10.00;;;2.50;;
29370;SDS011;16357;52.188;7.838;2024-01-15T03:02:36;9.30;;;2.55;;
29370;SDS011;16357;52.188;7.838;2024-01-15T03:05:09;8.00;;;2.50;;
29370;SDS011;16357;52.188;7.838;2024-01-15T03:07:36;10.27;;;2.95;;
29370;SDS011;16357;52.188;7.838;2024-01-15T03:10:02;9.43;;;2.58;;
29370;SDS011;16357;52.188;7.838;2024-01-15T03:12:29;12.95;;;2.88;;
29370;SDS011;16357;52.188;7.838;2024-01-15T03:14:55;12.00;;;3.05;;
29370;SDS011;16357;52.188;7.838;2024-01-15T03:17:22;7.22;;;2.15;;
29370;SDS011;16357;52.188;7.838;2024-01-15T03:19:48;13.23;;;2.58;;
29370;SDS011;16357;52.188;7.838;2024-01-15T03:22:16;7.35;;;2.30;;
29370;SDS011;16357;52.188;7.838;2024-01-15T03:24:43;12.80;;;2.65;;
29370;SDS011;16357;52.188;7.838;2024-01-15T03:27:10;6.63;;;2.40;;
29370;SDS011;16357;52.188;7.838;2024-01-15T03:29:36;11.48;;;2.63;;
29370;SDS011;16357;52.188;7.838;2024-01-15T03:32:03;11.32;;;2.97;;
29370;SDS011;16357;52.188;7.838;2024-01-15T03:34:29;6.78;;;2.05;;
29370;SDS011;16357;52.188;7.838;2024-01-15T03:36:56;7.25;;;1.98;;
29370;SDS011;16357;52.188;7.838;2024-01-15T03:39:23;8.77;;;2.28;;
29370;SDS011;16357;52.188;7.838;2024-01-15T03:41:49;11.38;;;2.78;;
29370;SDS011;16357;52.188;7.838;2024-01-15T03:44:16;12.30;;;2.58;;
29370;SDS011;16357;52.188;7.838;2024-01-15T03:46:42;6.68;;;1.98;;
29370;SDS011;16357;52.188;7.838;2024-01-15T03:49:08;10.60;;;2.33;;
29370;SDS011;16357;52.188;7.838;2024-01-15T03:51:35;6.10;;;2.50;;
29370;SDS011;16357;52.188;7.838;2024-01-15T03:54:02;9.25;;;2.78;;
29370;SDS011;16357;52.188;7.838;2024-01-15T03:56:28;11.13;;;2.65;;
29370;SDS011;16357;52.188;7.838;2024-01-15T03:58:54;8.48;;;2.08;;
29370;SDS011;16357;52.188;7.838;2024-01-15T04:01:21;10.48;;;2.20;;
29370;SDS011;16357;52.188;7.838;2024-01-15T04:03:47;7.78;;;2.47;;
29370;SDS011;16357;52.188;7.838;2024-01-15T04:06:14;9.52;;;2.40;;
29370;SDS011;16357;52.188;7.838;2024-01-15T04:08:41;8.15;;;2.38;;
29370;SDS011;16357;52.188;7.838;2024-01-15T04:11:07;5.60;;;2.00;;
29370;SDS011;16357;52.188;7.838;2024-01-15T04:13:33;8.60;;;2.35;;
29370;SDS011;16357;52.188;7.838;2024-01-15T04:16:00;6.28;;;1.90;;
29370;SDS011;16357;52.188;7.838;2024-01-15T04:18:27;15.32;;;2.47;;
29370;SDS011;16357;52.188;7.838;2024-01-15T04:20:53;9.23;;;2.45;;
29370;SDS011;16357;52.188;7.838;2024-01-15T04:23:20;7.93;;;2.03;;
29370;SDS011;16357;52.188;7.838;2024-01-15T04:25:46;8.88;;;1.80;;
29370;SDS011;16357;52.188;7.838;2024-01-15T04:28:13;7.55;;;1.80;;
29370;SDS011;16357;52.188;7.838;2024-01-15T04:30:39;8.80;;;2.67;;
29370;SDS011;16357;52.188;7.838;2024-01-15T04:33:06;6.82;;;2.00;;
29370;SDS011;16357;52.188;7.838;2024-01-15T04:35:33;8.80;;;1.73;;
29370;SDS011;16357;52.188;7.838;2024-01-15T04:38:00;7.60;;;2.10;;
29370;SDS011;16357;52.188;7.838;2024-01-15T04:40:27;6.93;;;1.83;;
29370;SDS011;16357;52.188;7.838;2024-01-15T04:42:54;7.85;;;1.73;;
29370;SDS011;16357;52.188;7.838;2024-01-15T04:45:21;6.60;;;1.73;;
29370;SDS011;16357;52.188;7.838;2024-01-15T04:47:49;5.80;;;1.70;;
29370;SDS011;16357;52.188;7.838;2024-01-15T04:50:15;8.57;;;1.58;;
29370;SDS011;16357;52.188;7.838;2024-01-15T04:52:42;10.00;;;1.90;;
29370;SDS011;16357;52.188;7.838;2024-01-15T04:55:08;8.38;;;1.95;;
29370;SDS011;16357;52.188;7.838;2024-01-15T04:57:35;7.00;;;1.67;;
29370;SDS011;16357;52.188;7.838;2024-01-15T05:00:02;7.07;;;1.80;;
29370;SDS011;16357;52.188;7.838;2024-01-15T05:02:29;9.73;;;1.60;;
29370;SDS011;16357;52.188;7.838;2024-01-15T05:04:55;7.05;;;1.40;;
29370;SDS011;16357;52.188;7.838;2024-01-15T05:07:22;5.88;;;1.60;;
29370;SDS011;16357;52.188;7.838;2024-01-15T05:09:48;6.28;;;1.83;;
29370;SDS011;16357;52.188;7.838;2024-01-15T05:12:15;7.72;;;1.80;;
29370;SDS011;16357;52.188;7.838;2024-01-15T05:14:41;6.90;;;1.65;;
29370;SDS011;16357;52.188;7.838;2024-01-15T05:17:07;4.97;;;1.50;;
29370;SDS011;16357;52.188;7.838;2024-01-15T05:19:36;6.32;;;1.60;;
29370;SDS011;16357;52.188;7.838;2024-01-15T05:22:03;7.65;;;2.08;;
29370;SDS011;16357;52.188;7.838;2024-01-15T05:24:29;5.90;;;1.75;;
29370;SDS011;16357;52.188;7.838;2024-01-15T05:26:56;8.25;;;1.92;;
29370;SDS011;16357;52.188;7.838;2024-01-15T05:29:23;4.38;;;1.58;;
29370;SDS011;16357;52.188;7.838;2024-01-15T05:31:49;6.63;;;2.13;;
29370;SDS011;16357;52.188;7.838;2024-01-15T05:34:16;9.55;;;2.40;;
29370;SDS011;16357;52.188;7.838;2024-01-15T05:36:42;9.77;;;2.30;;
29370;SDS011;16357;52.188;7.838;2024-01-15T05:39:09;6.95;;;1.65;;
29370;SDS011;16357;52.188;7.838;2024-01-15T05:41:35;10.40;;;2.13;;
29370;SDS011;16357;52.188;7.838;2024-01-15T05:44:02;6.05;;;1.80;;
29370;SDS011;16357;52.188;7.838;2024-01-15T05:46:28;6.35;;;1.98;;
29370;SDS011;16357;52.188;7.838;2024-01-15T05:48:55;7.53;;;2.10;;
29370;SDS011;16357;52.188;7.838;2024-01-15T05:51:22;8.75;;;2.28;;
29370;SDS011;16357;52.188;7.838;2024-01-15T05:53:49;7.72;;;1.85;;
29370;SDS011;16357;52.188;7.838;2024-01-15T05:56:18;13.60;;;2.13;;
29370;SDS011;16357;52.188;7.838;2024-01-15T05:58:44;9.32;;;2.00;;
29370;SDS011;16357;52.188;7.838;2024-01-15T06:01:10;11.40;;;2.38;;
29370;SDS011;16357;52.188;7.838;2024-01-15T06:03:37;10.23;;;2.88;;
29370;SDS011;16357;52.188;7.838;2024-01-15T06:06:04;9.18;;;2.58;;
29370;SDS011;16357;52.188;7.838;2024-01-15T06:08:31;8.40;;;2.28;;
29370;SDS011;16357;52.188;7.838;2024-01-15T06:10:57;6.68;;;1.98;;
29370;SDS011;16357;52.188;7.838;2024-01-15T06:13:27;8.40;;;2.08;;
29370;SDS011;16357;52.188;7.838;2024-01-15T06:15:53;5.22;;;2.00;;
29370;SDS011;16357;52.188;7.838;2024-01-15T06:18:20;10.75;;;2.30;;
29370;SDS011;16357;52.188;7.838;2024-01-15T06:20:46;8.43;;;2.38;;
29370;SDS011;16357;52.188;7.838;2024-01-15T06:23:13;5.65;;;1.83;;
29370;SDS011;16357;52.188;7.838;2024-01-15T06:25:39;10.85;;;3.45;;
29370;SDS011;16357;52.188;7.838;2024-01-15T06:28:06;3.88;;;1.90;;
29370;SDS011;16357;52.188;7.838;2024-01-15T06:30:32;6.20;;;2.08;;
29370;SDS011;16357;52.188;7.838;2024-01-15T06:32:59;8.57;;;2.35;;
29370;SDS011;16357;52.188;7.838;2024-01-15T06:35:26;3.72;;;1.70;;
29370;SDS011;16357;52.188;7.838;2024-01-15T06:37:52;7.05;;;1.58;;
29370;SDS011;16357;52.188;7.838;2024-01-15T06:40:19;9.25;;;1.92;;
29370;SDS011;16357;52.188;7.838;2024-01-15T06:42:45;5.47;;;1.60;;
29370;SDS011;16357;52.188;7.838;2024-01-15T06:45:12;7.78;;;1.88;;
29370;SDS011;16357;52.188;7.838;2024-01-15T06:47:38;6.32;;;2.00;;
29370;SDS011;16357;52.188;7.838;2024-01-15T06:50:05;6.70;;;2.10;;
29370;SDS011;16357;52.188;7.838;2024-01-15T06:52:33;5.00;;;2.00;;
29370;SDS011;16357;52.188;7.838;2024-01-15T06:54:59;10.73;;;2.30;;
29370;SDS011;16357;52.188;7.838;2024-01-15T06:57:26;4.53;;;1.40;;
29370;SDS011;16357;52.188;7.838;2024-01-15T06:59:53;6.90;;;1.85;;
29370;SDS011;16357;52.188;7.838;2024-01-15T07:02:19;6.15;;;1.60;;
29370;SDS011;16357;52.188;7.838;2024-01-15T07:04:46;5.53;;;1.80;;
29370;SDS011;16357;52.188;7.838;2024-01-15T07:07:12;5.15;;;1.70;;
29370;SDS011;16357;52.188;7.838;2024-01-15T07:09:39;6.50;;;1.73;;
29370;SDS011;16357;52.188;7.838;2024-01-15T07:12:05;8.57;;;1.88;;
29370;SDS011;16357;52.188;7.838;2024-01-15T07:14:32;4.32;;;1.60;;
29370;SDS011;16357;52.188;7.838;2024-01-15T07:16:58;6.00;;;1.83;;
29370;SDS011;16357;52.188;7.838;2024-01-15T07:19:25;4.40;;;1.70;;
29370;SDS011;16357;52.188;7.838;2024-01-15T07:21:51;4.65;;;1.50;;
29370;SDS011;16357;52.188;7.838;2024-01-15T07:24:22;3.28;;;1.45;;
29370;SDS011;16357;52.188;7.838;2024-01-15T07:26:49;5.70;;;1.67;;
29370;SDS011;16357;52.188;7.838;2024-01-15T07:29:15;5.95;;;1.77;;
29370;SDS011;16357;52.188;7.838;2024-01-15T07:31:47;4.00;;;1.55;;
29370;SDS011;16357;52.188;7.838;2024-01-15T07:34:14;4.40;;;1.60;;
29370;SDS011;16357;52.188;7.838;2024-01-15T07:36:41;9.45;;;1.73;;
29370;SDS011;16357;52.188;7.838;2024-01-15T07:39:08;4.82;;;1.70;;
29370;SDS011;16357;52.188;7.838;2024-01-15T07:41:34;5.47;;;1.90;;
29370;SDS011;16357;52.188;7.838;2024-01-15T07:44:02;4.95;;;1.73;;
29370;SDS011;16357;52.188;7.838;2024-01-15T07:46:28;4.30;;;1.67;;
29370;SDS011;16357;52.188;7.838;2024-01-15T07:48:55;6.30;;;1.40;;
29370;SDS011;16357;52.188;7.838;2024-01-15T07:51:24;6.13;;;1.90;;
29370;SDS011;16357;52.188;7.838;2024-01-15T07:53:54;3.65;;;1.50;;
29370;SDS011;16357;52.188;7.838;2024-01-15T07:56:23;3.72;;;1.55;;
29370;SDS011;16357;52.188;7.838;2024-01-15T07:58:50;7.32;;;1.75;;
29370;SDS011;16357;52.188;7.838;2024-01-15T08:01:16;2.78;;;1.30;;
29370;SDS011;16357;52.188;7.838;2024-01-15T08:03:43;5.05;;;1.40;;
29370;SDS011;16357;52.188;7.838;2024-01-15T08:06:10;5.47;;;1.92;;
29370;SDS011;16357;52.188;7.838;2024-01-15T08:08:37;4.57;;;1.92;;
29370;SDS011;16357;52.188;7.838;2024-01-15T08:11:03;4.35;;;1.70;;
29370;SDS011;16357;52.188;7.838;2024-01-15T08:13:30;3.45;;;1.65;;
29370;SDS011;16357;52.188;7.838;2024-01-15T08:15:57;5.43;;;2.00;;
29370;SDS011;16357;52.188;7.838;2024-01-15T08:18:23;3.85;;;1.88;;
29370;SDS011;16357;52.188;7.838;2024-01-15T08:20:50;6.20;;;1.83;;
29370;SDS011;16357;52.188;7.838;2024-01-15T08:23:17;4.47;;;1.70;;
29370;SDS011;16357;52.188;7.838;2024-01-15T08:25:44;3.15;;;2.17;;
29370;SDS011;16357;52.188;7.838;2024-01-15T08:28:10;4.05;;;2.03;;
29370;SDS011;16357;52.188;7.838;2024-01-15T08:30:37;5.95;;;1.88;;
29370;SDS011;16357;52.188;7.838;2024-01-15T08:33:04;5.53;;;2.55;;
29370;SDS011;16357;52.188;7.838;2024-01-15T08:35:43;4.90;;;2.03;;
29370;SDS011;16357;52.188;7.838;2024-01-15T08:38:10;5.10;;;2.03;;
29370;SDS011;16357;52.188;7.838;2024-01-15T08:40:36;4.40;;;2.50;;
29370;SDS011;16357;52.188;7.838;2024-01-15T08:43:02;5.72;;;2.72;;
29370;SDS011;16357;52.188;7.838;2024-01-15T08:45:29;4.18;;;2.42;;
29370;SDS011;16357;52.188;7.838;2024-01-15T08:47:57;5.47;;;3.15;;
29370;SDS011;16357;52.188;7.838;2024-01-15T08:50:24;6.45;;;2.72;;
29370;SDS011;16357;52.188;7.838;2024-01-15T08:52:51;5.82;;;2.90;;
29370;SDS011;16357;52.188;7.838;2024-01-15T08:55:18;3.85;;;2.72;;
29370;SDS011;16357;52.188;7.838;2024-01-15T08:57:44;4.72;;;2.53;;
29370;SDS011;16357;52.188;7.838;2024-01-15T09:00:11;12.15;;;3.00;;
29370;SDS011;16357;52.188;7.838;2024-01-15T09:02:38;6.18;;;3.33;;
29370;SDS011;16357;52.188;7.838;2024-01-15T09:05:05;8.00;;;3.60;;
29370;SDS011;16357;52.188;7.838;2024-01-15T09:07:32;7.75;;;2.92;;
29370;SDS011;16357;52.188;7.838;2024-01-15T09:09:59;6.28;;;2.88;;
29370;SDS011;16357;52.188;7.838;2024-01-15T09:12:26;5.93;;;2.80;;
29370;SDS011;16357;52.188;7.838;2024-01-15T09:14:52;7.45;;;2.60;;
29370;SDS011;16357;52.188;7.838;2024-01-15T09:17:20;8.90;;;3.05;;
29370;SDS011;16357;52.188;7.838;2024-01-15T09:19:47;7.75;;;3.35;;
29370;SDS011;16357;52.188;7.838;2024-01-15T09:22:15;7.53;;;2.75;;
29370;SDS011;16357;52.188;7.838;2024-01-15T09:24:45;6.95;;;2.75;;
29370;SDS011;16357;52.188;7.838;2024-01-15T09:27:11;6.25;;;2.70;;
29370;SDS011;16357;52.188;7.838;2024-01-15T09:29:38;8.48;;;2.88;;
29370;SDS011;16357;52.188;7.838;2024-01-15T09:32:07;10.05;;;3.08;;
29370;SDS011;16357;52.188;7.838;2024-01-15T09:34:34;5.38;;;2.30;;
29370;SDS011;16357;52.188;7.838;2024-01-15T09:37:01;5.55;;;2.25;;
29370;SDS011;16357;52.188;7.838;2024-01-15T09:39:28;5.78;;;2.17;;
29370;SDS011;16357;52.188;7.838;2024-01-15T09:41:55;9.18;;;2.65;;
29370;SDS011;16357;52.188;7.838;2024-01-15T09:44:22;6.18;;;2.22;;
29370;SDS011;16357;52.188;7.838;2024-01-15T09:46:49;8.30;;;2.10;;
29370;SDS011;16357;52.188;7.838;2024-01-15T09:49:17;7.47;;;2.40;;
29370;SDS011;16357;52.188;7.838;2024-01-15T09:51:44;6.60;;;2.33;;
29370;SDS011;16357;52.188;7.838;2024-01-15T09:54:21;8.07;;;2.40;;
29370;SDS011;16357;52.188;7.838;2024-01-15T09:56:47;5.47;;;2.10;;
29370;SDS011;16357;52.188;7.838;2024-01-15T09:59:18;8.27;;;2.33;;
29370;SDS011;16357;52.188;7.838;2024-01-15T10:01:45;7.43;;;1.92;;
29370;SDS011;16357;52.188;7.838;2024-01-15T10:04:12;3.45;;;1.80;;
29370;SDS011;16357;52.188;7.838;2024-01-15T10:06:45;5.50;;;2.28;;
29370;SDS011;16357;52.188;7.838;2024-01-15T10:09:12;5.40;;;2.00;;
29370;SDS011;16357;52.188;7.838;2024-01-15T10:11:42;7.82;;;2.60;;
29370;SDS011;16357;52.188;7.838;2024-01-15T10:14:10;9.73;;;2.33;;
29370;SDS011;16357;52.188;7.838;2024-01-15T10:16:40;10.25;;;2.60;;
29370;SDS011;16357;52.188;7.838;2024-01-15T10:19:07;6.18;;;2.22;;
29370;SDS011;16357;52.188;7.838;2024-01-15T10:21:35;5.00;;;1.90;;
29370;SDS011;16357;52.188;7.838;2024-01-15T10:24:02;4.25;;;1.70;;
29370;SDS011;16357;52.188;7.838;2024-01-15T10:26:30;6.85;;;2.47;;
29370;SDS011;16357;52.188;7.838;2024-01-15T10:29:00;7.57;;;3.03;;
29370;SDS011;16357;52.188;7.838;2024-01-15T10:31:27;9.88;;;2.85;;
29370;SDS011;16357;52.188;7.838;2024-01-15T10:34:09;7.30;;;2.40;;
29370;SDS011;16357;52.188;7.838;2024-01-15T10:36:41;10.57;;;2.58;;
29370;SDS011;16357;52.188;7.838;2024-01-15T10:39:08;7.30;;;2.30;;
29370;SDS011;16357;52.188;7.838;2024-01-15T10:41:34;8.52;;;2.00;;
29370;SDS011;16357;52.188;7.838;2024-01-15T10:44:01;4.57;;;1.95;;
29370;SDS011;16357;52.188;7.838;2024-01-15T10:46:27;7.07;;;1.85;;
29370;SDS011;16357;52.188;7.838;2024-01-15T10:48:55;3.60;;;2.05;;
29370;SDS011;16357;52.188;7.838;2024-01-15T10:51:21;5.93;;;2.08;;
29370;SDS011;16357;52.188;7.838;2024-01-15T10:53:49;7.38;;;2.38;;
29370;SDS011;16357;52.188;7.838;2024-01-15T10:56:16;6.05;;;2.22;;
29370;SDS011;16357;52.188;7.838;2024-01-15T10:58:44;5.30;;;2.28;;
29370;SDS011;16357;52.188;7.838;2024-01-15T11:01:11;5.53;;;1.98;;
29370;SDS011;16357;52.188;7.838;2024-01-15T11:03:39;7.18;;;2.58;;
29370;SDS011;16357;52.188;7.838;2024-01-15T11:06:18;4.68;;;1.88;;
29370;SDS011;16357;52.188;7.838;2024-01-15T11:08:48;6.57;;;2.50;;
29370;SDS011;16357;52.188;7.838;2024-01-15T11:11:18;4.85;;;2.30;;
29370;SDS011;16357;52.188;7.838;2024-01-15T11:13:47;9.05;;;2.67;;
29370;SDS011;16357;52.188;7.838;2024-01-15T11:16:15;3.83;;;2.05;;
29370;SDS011;16357;52.188;7.838;2024-01-15T11:18:43;6.28;;;2.80;;
29370;SDS011;16357;52.188;7.838;2024-01-15T11:21:28;8.82;;;2.63;;
29370;SDS011;16357;52.188;7.838;2024-01-15T11:23:59;4.20;;;2.40;;
29370;SDS011;16357;52.188;7.838;2024-01-15T11:37:26;5.25;;;2.63;;
29370;SDS011;16357;52.188;7.838;2024-01-15T11:39:54;5.63;;;2.88;;
29370;SDS011;16357;52.188;7.838;2024-01-15T11:42:22;5.35;;;3.00;;
29370;SDS011;16357;52.188;7.838;2024-01-15T11:44:49;7.65;;;2.97;;
29370;SDS011;16357;52.188;7.838;2024-01-15T11:47:16;6.60;;;2.60;;
29370;SDS011;16357;52.188;7.838;2024-01-15T11:50:06;7.13;;;2.70;;
29370;SDS011;16357;52.188;7.838;2024-01-15T11:52:38;8.77;;;3.00;;
29370;SDS011;16357;52.188;7.838;2024-01-15T11:55:11;7.75;;;2.67;;
29370;SDS011;16357;52.188;7.838;2024-01-15T11:57:50;6.90;;;2.55;;
29370;SDS011;16357;52.188;7.838;2024-01-15T12:00:18;6.72;;;2.65;;
29370;SDS011;16357;52.188;7.838;2024-01-15T12:02:46;6.75;;;2.58;;
29370;SDS011;16357;52.188;7.838;2024-01-15T12:05:14;10.55;;;3.45;;
29370;SDS011;16357;52.188;7.838;2024-01-15T12:07:43;7.78;;;2.85;;
29370;SDS011;16357;52.188;7.838;2024-01-15T12:10:12;7.72;;;2.67;;
29370;SDS011;16357;52.188;7.838;2024-01-15T12:15:19;10.18;;;3.13;;
29370;SDS011;16357;52.188;7.838;2024-01-15T12:17:46;8.02;;;2.50;;
29370;SDS011;16357;52.188;7.838;2024-01-15T12:20:14;10.00;;;2.60;;
29370;SDS011;16357;52.188;7.838;2024-01-15T12:22:42;5.47;;;2.40;;
29370;SDS011;16357;52.188;7.838;2024-01-15T12:25:25;5.80;;;2.60;;
29370;SDS011;16357;52.188;7.838;2024-01-15T12:27:56;4.30;;;2.47;;
29370;SDS011;16357;52.188;7.838;2024-01-15T12:30:22;6.47;;;2.50;;
29370;SDS011;16357;52.188;7.838;2024-01-15T12:32:49;5.65;;;2.13;;
29370;SDS011;16357;52.188;7.838;2024-01-15T12:35:16;2.97;;;2.00;;
29370;SDS011;16357;52.188;7.838;2024-01-15T12:37:43;4.70;;;2.28;;
29370;SDS011;16357;52.188;7.838;2024-01-15T12:40:12;6.75;;;2.30;;
29370;SDS011;16357;52.188;7.838;2024-01-15T12:42:39;4.18;;;2.50;;
29370;SDS011;16357;52.188;7.838;2024-01-15T12:45:06;3.97;;;2.30;;
29370;SDS011;16357;52.188;7.838;2024-01-15T12:47:34;7.57;;;2.50;;
29370;SDS011;16357;52.188;7.838;2024-01-15T12:50:02;6.07;;;2.70;;
29370;SDS011;16357;52.188;7.838;2024-01-15T12:52:41;4.32;;;2.08;;
29370;SDS011;16357;52.188;7.838;2024-01-15T12:55:08;4.65;;;2.70;;
29370;SDS011;16357;52.188;7.838;2024-01-15T12:57:36;4.53;;;2.25;;
29370;SDS011;16357;52.188;7.838;2024-01-15T13:00:03;5.25;;;2.08;;
29370;SDS011;16357;52.188;7.838;2024-01-15T13:02:38;4.13;;;2.40;;
29370;SDS011;16357;52.188;7.838;2024-01-15T13:05:07;6.15;;;2.30;;
29370;SDS011;16357;52.188;7.838;2024-01-15T13:07:35;4.55;;;2.13;;
29370;SDS011;16357;52.188;7.838;2024-01-15T13:10:01;6.10;;;2.42;;
29370;SDS011;16357;52.188;7.838;2024-01-15T13:12:28;5.28;;;1.88;;
29370;SDS011;16357;52.188;7.838;2024-01-15T13:14:55;5.30;;;2.05;;
29370;SDS011;16357;52.188;7.838;2024-01-15T13:17:22;5.40;;;2.10;;
29370;SDS011;16357;52.188;7.838;2024-01-15T13:19:49;6.22;;;2.08;;
29370;SDS011;16357;52.188;7.838;2024-01-15T13:22:15;3.30;;;1.80;;
29370;SDS011;16357;52.188;7.838;2024-01-15T13:24:42;4.22;;;1.90;;
29370;SDS011;16357;52.188;7.838;2024-01-15T13:27:09;5.55;;;2.00;;
29370;SDS011;16357;52.188;7.838;2024-01-15T13:29:36;5.57;;;1.70;;
29370;SDS011;16357;52.188;7.838;2024-01-15T13:32:03;3.55;;;1.65;;
29370;SDS011;16357;52.188;7.838;2024-01-15T13:34:31;5.82;;;2.13;;
29370;SDS011;16357;52.188;7.838;2024-01-15T13:36:57;7.20;;;1.92;;
29370;SDS011;16357;52.188;7.838;2024-01-15T13:39:24;2.85;;;1.77;;
29370;SDS011;16357;52.188;7.838;2024-01-15T13:41:50;4.55;;;1.90;;
29370;SDS011;16357;52.188;7.838;2024-01-15T13:44:17;6.75;;;2.10;;
29370;SDS011;16357;52.188;7.838;2024-01-15T13:46:44;2.92;;;1.75;;
29370;SDS011;16357;52.188;7.838;2024-01-15T13:49:10;5.35;;;1.85;;
29370;SDS011;16357;52.188;7.838;2024-01-15T13:51:37;4.30;;;2.00;;
29370;SDS011;16357;52.188;7.838;2024-01-15T13:54:04;5.32;;;2.22;;
29370;SDS011;16357;52.188;7.838;2024-01-15T13:56:30;5.22;;;2.13;;
29370;SDS011;16357;52.188;7.838;2024-01-15T13:59:01;7.60;;;1.75;;
29370;SDS011;16357;52.188;7.838;2024-01-15T14:01:28;6.18;;;1.90;;
29370;SDS011;16357;52.188;7.838;2024-01-15T14:03:54;4.43;;;1.73;;
29370;SDS011;16357;52.188;7.838;2024-01-15T14:06:21;8.48;;;2.60;;
29370;SDS011;16357;52.188;7.838;2024-01-15T14:08:48;3.47;;;1.83;;
29370;SDS011;16357;52.188;7.838;2024-01-15T14:11:14;4.32;;;1.80;;
29370;SDS011;16357;52.188;7.838;2024-01-15T14:13:41;4.78;;;2.05;;
29370;SDS011;16357;52.188;7.838;2024-01-15T14:16:07;5.22;;;1.50;;
29370;SDS011;16357;52.188;7.838;2024-01-15T14:18:38;3.22;;;1.17;;
29370;SDS011;16357;52.188;7.838;2024-01-15T14:21:05;3.95;;;1.17;;
29370;SDS011;16357;52.188;7.838;2024-01-15T14:23:31;2.83;;;1.30;;
29370;SDS011;16357;52.188;7.838;2024-01-15T14:25:58;2.80;;;1.10;;
29370;SDS011;16357;52.188;7.838;2024-01-15T14:28:24;4.30;;;1.55;;
29370;SDS011;16357;52.188;7.838;2024-01-15T14:30:51;5.93;;;1.55;;
29370;SDS011;16357;52.188;7.838;2024-01-15T14:33:18;5.45;;;1.98;;
29370;SDS011;16357;52.188;7.838;2024-01-15T14:35:45;6.70;;;2.00;;
29370;SDS011;16357;52.188;7.838;2024-01-15T14:38:11;5.47;;;1.52;;
29370;SDS011;16357;52.188;7.838;2024-01-15T14:40:38;3.30;;;1.30;;
29370;SDS011;16357;52.188;7.838;2024-01-15T14:43:04;5.80;;;1.40;;
29370;SDS011;16357;52.188;7.838;2024-01-15T14:45:31;7.13;;;1.08;;
29370;SDS011;16357;52.188;7.838;2024-01-15T14:47:57;5.05;;;1.20;;
29370;SDS011;16357;52.188;7.838;2024-01-15T14:50:24;2.78;;;0.95;;
29370;SDS011;16357;52.188;7.838;2024-01-15T14:52:51;5.20;;;1.88;;
29370;SDS011;16357;52.188;7.838;2024-01-15T14:55:18;6.28;;;1.63;;
29370;SDS011;16357;52.188;7.838;2024-01-15T14:57:44;3.72;;;1.23;;
29370;SDS011;16357;52.188;7.838;2024-01-15T15:00:11;6.90;;;1.50;;
29370;SDS011;16357;52.188;7.838;2024-01-15T15:02:39;4.07;;;1.35;;